Latest Weather Observations for Portland Airport

IDV60801

Issued at 4:05 pm EST Tuesday 29 July 2014 (issued every 30 minutes, with the page automatically refreshed every 10 minutes)

About weather observations | Map of weather stations | Latest weather observations for VIC | Other Formats
Station Details ID: 090171 Name: CASHMORE AIRPORT Lat: -38.31 Lon: 141.47 Height: 80.9 m
Data from the previous 72 hours. | See also: Recent months at Portland Airport
Date/Time
EST
Temp
°C
App
Temp
°C
Dew
Point
Rel
Hum
%
Delta-T
°C
Wind Press
QNH
hPa
Press
MSL
hPa
Rain
since 9 am
mm
Dir
 
Spd
km/h
Gust
km/h
Spd
kts
Gust
kts
29/04:03pm 14.0 6.8 11.9 87 1.1 WNW 41 61 22 33 1005.4 - 1.4
29/04:00pm 13.9 6.4 12.1 89 1.0 WNW 43 69 23 37 1005.6 - 1.4
29/03:30pm 13.9 6.3 11.8 87 1.1 WNW 43 61 23 33 1005.3 - 0.4
29/03:21pm 14.3 6.1 11.6 84 1.5 WNW 46 76 25 41 1005.4 - 0.2
29/03:00pm 14.7 6.5 11.8 83 1.6 WNW 46 65 25 35 1005.1 1005.3 0.2
29/02:30pm 14.7 7.1 11.7 82 1.6 WNW 43 63 23 34 1004.9 - 0.2
29/02:00pm 14.9 6.6 11.5 80 1.8 WNW 46 72 25 39 1004.7 - 0.2
29/01:30pm 14.8 6.5 11.4 80 1.8 WNW 46 69 25 37 1004.5 - 0.2
29/01:00pm 15.1 7.5 11.9 81 1.7 WNW 43 65 23 35 1004.7 - 0.2
29/12:30pm 14.5 7.0 12.2 86 1.3 NW 43 61 23 33 1005.0 - 0.2
29/12:00pm 14.4 6.8 12.4 88 1.1 WNW 44 65 24 35 1005.6 1005.8 0.2
29/11:30am 14.6 7.2 12.3 86 1.3 WNW 43 61 23 33 1005.4 - 0.2
29/11:20am 14.3 6.9 12.3 88 1.1 WNW 43 67 23 36 1005.6 - 0.2
29/11:01am 13.9 6.8 12.1 89 1.0 WNW 41 59 22 32 1005.8 - 0.0
29/11:00am 14.0 6.5 12.0 88 1.1 WNW 43 63 23 34 1005.8 - 0.0
29/10:44am 14.0 6.4 11.9 87 1.1 NW 43 61 23 33 1005.4 - 0.0
29/10:39am 14.1 6.5 11.8 86 1.2 NW 43 57 23 31 1005.4 - 0.0
29/10:30am 13.9 6.7 11.9 88 1.1 WNW 41 56 22 30 1005.5 - 0.0
29/10:18am 14.0 6.2 11.9 87 1.1 WNW 44 63 24 34 1005.7 - 0.0
29/10:17am 14.1 5.9 11.8 86 1.2 WNW 46 63 25 34 1005.6 - 0.0
29/10:01am 14.6 6.4 11.6 82 1.6 NW 46 69 25 37 1005.4 - 0.0
29/10:00am 14.6 6.4 11.6 82 1.6 WNW 46 61 25 33 1005.6 - 0.0
29/09:30am 14.2 6.4 11.7 85 1.3 NW 44 63 24 34 1005.0 - 0.0
29/09:07am 13.9 6.0 11.6 86 1.2 NW 44 67 24 36 1005.2 - 0.0
29/09:00am 14.0 6.2 11.7 86 1.2 NW 44 59 24 32 1005.0 1005.2 3.6
29/08:34am 13.5 7.0 11.7 89 1.0 NW 37 59 20 32 1004.8 - 3.6
29/08:31am 13.5 6.6 11.7 89 1.0 NW 39 52 21 28 1004.7 - 3.6
29/08:30am 13.5 6.6 11.7 89 1.0 NW 39 52 21 28 1004.7 - 3.6
29/08:07am 13.3 6.0 11.7 90 0.9 NW 41 59 22 32 1004.9 - 3.6
29/08:00am 13.3 6.8 11.7 90 0.9 NW 37 56 20 30 1005.0 - 3.6
29/07:59am 13.2 6.7 11.6 90 0.9 NW 37 56 20 30 1005.0 - 3.6
29/07:56am 13.2 6.3 11.6 90 0.9 NW 39 54 21 29 1005.1 - 3.6
29/07:30am 13.1 5.9 11.8 92 0.7 WNW 41 61 22 33 1005.2 - 3.6
29/07:17am 13.0 6.9 11.7 92 0.7 NW 35 54 19 29 1005.5 - 3.4
29/07:16am 13.0 6.9 11.7 92 0.7 NW 35 54 19 29 1005.5 - 3.4
29/07:12am 13.1 6.6 11.7 91 0.7 NW 37 54 20 29 1005.3 - 3.4
29/07:00am 13.0 6.5 11.7 92 0.7 NW 37 54 20 29 1005.0 - 3.4
29/06:59am 13.0 6.9 11.7 92 0.7 NW 35 54 19 29 1005.2 - 3.2
29/06:48am 13.1 6.6 11.7 91 0.7 NW 37 50 20 27 1005.0 - 3.0
29/06:30am 13.1 5.7 11.3 89 1.0 NW 41 59 22 32 1005.0 - 3.0
29/06:23am 13.1 6.2 11.5 90 0.9 NW 39 57 21 31 1005.0 - 3.0
29/06:12am 13.1 6.2 11.5 90 0.9 NW 39 54 21 29 1005.0 - 3.0
29/06:00am 12.9 5.6 11.5 91 0.7 NW 41 61 22 33 1005.0 1005.2 3.0
29/05:57am 12.9 5.6 11.5 91 0.7 NW 41 61 22 33 1004.9 - 3.0
29/05:54am 12.9 5.2 11.5 91 0.7 NW 43 56 23 30 1005.0 - 3.0
29/05:42am 12.8 6.2 11.4 91 0.7 NW 37 57 20 31 1004.7 - 3.0
29/05:30am 12.7 6.5 11.3 91 0.7 NW 35 50 19 27 1004.8 - 3.0
29/05:00am 12.6 5.5 11.0 90 0.8 NW 39 59 21 32 1005.1 - 2.8
29/04:34am 12.4 6.1 11.1 92 0.7 NW 35 54 19 29 1004.7 - 2.6
29/04:30am 12.4 6.1 11.1 92 0.7 NW 35 54 19 29 1004.7 - 2.6
29/04:09am 12.5 6.2 11.1 91 0.7 NW 35 57 19 31 1005.0 - 2.0
29/04:05am 12.5 6.6 11.1 91 0.7 NW 33 50 18 27 1005.0 - 1.8
29/04:00am 12.5 6.5 10.9 90 0.8 NW 33 48 18 26 1005.0 - 1.8
29/03:46am 12.6 6.2 10.8 89 0.9 NW 35 54 19 29 1005.1 - 1.6
29/03:43am 12.7 6.0 10.9 89 0.9 NW 37 54 20 29 1005.0 - 1.6
29/03:30am 13.0 6.9 10.5 85 1.3 NW 33 52 18 28 1005.1 - 1.4
29/03:00am 13.0 6.6 10.7 86 1.2 NW 35 65 19 35 1005.6 1005.8 1.4
29/02:30am 12.8 6.3 10.5 86 1.2 NW 35 56 19 30 1005.8 - 1.4
29/02:26am 12.7 6.2 10.4 86 1.2 NW 35 56 19 30 1005.8 - 1.4
29/02:00am 12.5 6.0 10.4 87 1.1 NNW 35 50 19 27 1005.9 - 1.4
29/01:30am 12.5 6.4 10.6 88 1.0 NNW 33 54 18 29 1006.3 - 1.4
29/01:13am 12.7 6.6 10.6 87 1.1 NW 33 52 18 28 1006.6 - 1.4
29/01:00am 12.8 6.4 10.7 87 1.1 NW 35 50 19 27 1006.8 - 1.4
29/12:45am 12.5 6.4 10.6 88 1.0 NNW 33 52 18 28 1006.9 - 1.4
29/12:30am 12.3 6.2 10.4 88 1.0 NNW 33 46 18 25 1007.2 - 1.4
29/12:00am 12.3 6.4 10.4 88 1.0 NW 32 56 17 30 1007.6 1007.8 1.4
 
Date/Time
EST
Temp
°C
App
Temp
°C
Dew
Point
Rel
Hum
%
Delta-T
°C
Wind Press
QNH
hPa
Press
MSL
hPa
Rain
since 9 am
mm
Dir
 
Spd
km/h
Gust
km/h
Spd
kts
Gust
kts
28/11:30pm 12.2 6.1 10.4 89 0.9 NNW 33 54 18 29 1008.0 - 1.4
28/11:01pm 12.1 6.2 10.3 89 0.9 NNW 32 50 17 27 1008.4 - 1.4
28/11:00pm 12.1 6.0 10.5 90 0.8 NNW 33 50 18 27 1008.4 - 1.4
28/10:46pm 12.2 6.3 10.4 89 0.9 NNW 32 50 17 27 1008.8 - 1.4
28/10:30pm 12.0 6.5 10.6 91 0.7 NNW 30 43 16 23 1009.0 - 1.4
28/10:00pm 11.9 6.4 10.5 91 0.7 NNW 30 48 16 26 1009.4 - 1.4
28/09:33pm 12.0 6.9 10.6 91 0.7 NNW 28 50 15 27 1009.4 - 1.4
28/09:30pm 12.1 7.4 10.8 92 0.7 NNW 26 41 14 22 1009.3 - 1.4
28/09:17pm 12.1 7.8 10.8 92 0.7 NNW 24 35 13 19 1009.4 - 1.4
28/09:01pm 12.2 6.8 10.8 91 0.7 NW 30 48 16 26 1009.7 - 1.0
28/09:00pm 12.2 7.2 10.8 91 0.7 NW 28 43 15 23 1009.8 1010.0 1.0
28/08:58pm 12.2 7.2 10.8 91 0.7 NW 28 48 15 26 1009.9 - 0.8
28/08:30pm 12.3 7.2 10.5 89 0.9 NNW 28 43 15 23 1009.8 - 0.2
28/08:00pm 12.9 7.2 9.9 82 1.5 NNW 30 44 16 24 1009.5 - 0.0
28/07:31pm 12.8 7.4 9.6 81 1.6 NNW 28 46 15 25 1009.4 - 0.0
28/07:30pm 12.8 7.4 9.6 81 1.6 NNW 28 41 15 22 1009.4 - 0.0
28/07:00pm 13.1 8.1 9.5 79 1.8 NNW 26 39 14 21 1009.7 - 0.0
28/06:30pm 13.2 7.7 9.3 77 2.0 NW 28 43 15 23 1009.8 - 0.0
28/06:00pm 13.5 7.7 9.4 76 2.1 NW 30 39 16 21 1010.1 1010.3 0.0
28/05:30pm 13.6 8.1 9.3 75 2.2 NW 28 35 15 19 1009.8 - 0.0
28/05:00pm 14.3 8.4 9.1 71 2.7 NW 30 44 16 24 1009.7 - 0.0
28/04:44pm 14.5 8.6 9.1 70 2.8 NW 30 48 16 26 1009.6 - 0.0
28/04:30pm 14.7 8.8 9.1 69 2.9 NW 30 43 16 23 1009.9 - 0.0
28/04:00pm 15.2 9.0 9.3 68 3.0 WNW 32 44 17 24 1009.8 - 0.0
28/03:49pm 14.9 8.9 8.8 67 3.1 WNW 30 48 16 26 1009.8 - 0.0
28/03:30pm 15.1 7.8 8.8 66 3.2 NW 37 54 20 29 1009.7 - 0.0
28/03:02pm 15.6 8.9 9.7 68 3.1 WNW 35 54 19 29 1010.1 - 0.0
28/03:00pm 15.7 8.3 9.8 68 3.1 WNW 39 54 21 29 1010.1 1010.3 0.0
28/02:31pm 15.6 9.2 9.3 66 3.3 WNW 33 54 18 29 1010.2 - 0.0
28/02:30pm 15.7 9.4 9.8 68 3.1 WNW 33 44 18 24 1010.2 - 0.0
28/02:08pm 15.1 9.6 10.7 75 2.3 NW 30 50 16 27 1010.4 - 0.0
28/02:00pm 15.5 10.2 11.3 76 2.3 NW 30 43 16 23 1010.6 - 0.0
28/01:30pm 15.1 9.6 10.7 75 2.3 NW 30 41 16 22 1011.0 - 0.0
28/01:00pm 14.6 9.1 10.4 76 2.2 NW 30 43 16 23 1011.4 - 0.0
28/12:30pm 15.5 9.3 10.1 70 2.8 NW 33 50 18 27 1011.5 - 0.0
28/12:02pm 15.0 9.5 10.6 75 2.3 NW 30 48 16 26 1012.0 - 0.0
28/12:00pm 15.1 9.2 10.5 74 2.4 NW 32 48 17 26 1011.9 1012.1 0.0
28/11:30am 14.8 9.4 10.8 77 2.1 NW 30 44 16 24 1012.4 - 0.0
28/11:12am 14.6 9.4 10.4 76 2.2 NW 28 46 15 25 1012.7 - 0.0
28/11:00am 14.6 8.8 10.8 78 2.0 NW 32 43 17 23 1012.7 - 0.0
28/10:44am 14.3 8.7 10.3 77 2.1 NW 30 56 16 30 1012.7 - 0.0
28/10:30am 14.0 9.2 10.4 79 1.9 NW 26 41 14 22 1013.0 - 0.0
28/10:00am 13.3 8.8 10.1 81 1.7 NW 24 39 13 21 1013.2 - 0.0
28/09:30am 11.4 7.6 9.8 90 0.8 NNW 20 30 11 16 1013.1 - 0.0
28/09:00am 10.6 6.7 9.4 92 0.6 NNW 20 32 11 17 1013.1 1013.2 0.0
28/08:30am 9.7 5.6 8.6 93 0.5 NNW 20 28 11 15 1013.0 - 0.0
28/08:00am 9.4 5.4 8.2 92 0.6 NNW 19 24 10 13 1013.0 - 0.0
28/07:30am 9.5 5.9 8.3 92 0.6 NNW 17 26 9 14 1013.1 - 0.0
28/07:00am 11.0 7.1 9.4 90 0.8 NW 20 28 11 15 1013.2 - 0.0
28/06:30am 10.9 6.6 9.2 89 0.9 NW 22 30 12 16 1013.2 - 0.0
28/06:00am 11.0 6.6 8.9 87 1.0 NW 22 30 12 16 1013.2 1013.3 0.0
28/05:30am 10.7 6.8 8.5 86 1.1 NW 19 24 10 13 1013.2 - 0.0
28/05:00am 10.9 6.9 8.3 84 1.3 NNW 19 26 10 14 1013.3 - 0.0
28/04:30am 10.5 6.1 7.6 82 1.4 NNW 20 26 11 14 1013.3 - 0.0
28/04:00am 10.9 6.2 7.8 81 1.5 NNW 22 33 12 18 1013.4 - 0.0
28/03:30am 11.0 6.2 7.5 79 1.7 NNW 22 30 12 16 1013.5 - 0.0
28/03:00am 11.0 6.2 7.5 79 1.7 NNW 22 33 12 18 1013.7 1013.8 0.0
28/02:30am 11.5 6.8 7.6 77 1.9 NNW 22 30 12 16 1013.9 - 0.0
28/02:00am 11.5 6.7 7.4 76 2.0 NNW 22 30 12 16 1014.1 - 0.0
28/01:30am 11.3 6.1 7.2 76 2.0 NNW 24 33 13 18 1014.3 - 0.0
28/01:00am 11.4 6.2 7.3 76 2.0 NNW 24 35 13 19 1014.7 - 0.0
28/12:30am 11.2 6.0 7.1 76 2.0 NNW 24 33 13 18 1014.9 - 0.0
28/12:00am 11.6 6.0 7.1 74 2.2 NNW 26 37 14 20 1015.3 1015.5 0.0
 
Date/Time
EST
Temp
°C
App
Temp
°C
Dew
Point
Rel
Hum
%
Delta-T
°C
Wind Press
QNH
hPa
Press
MSL
hPa
Rain
since 9 am
mm
Dir
 
Spd
km/h
Gust
km/h
Spd
kts
Gust
kts
27/11:30pm 12.2 6.3 7.3 72 2.4 NNW 28 43 15 23 1015.5 - 0.0
27/11:00pm 11.9 6.7 7.2 73 2.3 NNW 24 33 13 18 1015.7 - 0.0
27/10:30pm 12.0 6.4 7.3 73 2.3 NNW 26 37 14 20 1015.6 - 0.0
27/10:00pm 12.4 6.5 7.3 71 2.5 NNW 28 43 15 23 1015.8 - 0.0
27/09:30pm 12.4 6.5 7.5 72 2.4 NNW 28 39 15 21 1016.1 - 0.0
27/09:00pm 12.4 6.9 7.7 73 2.3 NNW 26 41 14 22 1016.0 1016.2 0.0
27/08:30pm 12.2 6.7 7.7 74 2.2 NNW 26 35 14 19 1015.9 - 0.0
27/08:00pm 12.0 6.5 7.7 75 2.1 N 26 35 14 19 1015.9 - 0.0
27/07:30pm 12.1 7.1 8.0 76 2.0 N 24 35 13 19 1016.1 - 0.0
27/07:00pm 12.2 6.9 8.3 77 1.9 N 26 39 14 21 1016.4 - 0.0
27/06:30pm 12.2 7.3 8.3 77 1.9 N 24 33 13 18 1016.6 - 0.0
27/06:00pm 12.6 8.1 8.7 77 2.0 N 22 35 12 19 1016.5 1016.7 0.0
27/05:30pm 13.1 9.0 8.8 75 2.2 N 20 30 11 16 1016.5 - 0.0
27/05:00pm 13.9 9.5 8.9 72 2.5 N 22 35 12 19 1016.4 - 0.0
27/04:30pm 14.4 9.2 8.8 69 2.8 NNW 26 33 14 18 1016.4 - 0.0
27/04:00pm 14.8 10.0 9.0 68 3.0 NNW 24 35 13 19 1016.4 - 0.0
27/03:30pm 14.9 10.1 8.8 67 3.1 NNW 24 35 13 19 1016.9 - 0.0
27/03:00pm 14.9 9.6 8.4 65 3.3 NNW 26 43 14 23 1016.9 1017.1 0.0
27/02:30pm 15.0 9.4 8.7 66 3.2 NNW 28 41 15 22 1017.0 - 0.0
27/02:00pm 14.9 9.3 8.8 67 3.1 NNW 28 43 15 23 1017.1 - 0.0
27/01:30pm 14.6 8.0 8.5 67 3.1 NNW 33 46 18 25 1017.6 - 0.0
27/01:18pm 14.9 8.6 9.1 68 3.0 NNW 32 50 17 27 1017.7 - 0.0
27/01:00pm 14.9 9.5 9.5 70 2.8 NNW 28 41 15 22 1017.9 - 0.0
27/12:30pm 14.2 8.7 9.2 72 2.6 NNW 28 41 15 22 1018.5 - 0.0
27/12:00pm 13.2 7.6 8.9 75 2.2 NNW 28 43 15 23 1019.6 1019.8 0.0
27/11:30am 12.7 7.4 8.4 75 2.1 NNW 26 41 14 22 1020.1 - 0.0
27/11:00am 11.6 6.2 7.9 78 1.8 N 26 35 14 19 1020.6 - 0.0
27/10:30am 11.3 6.3 8.0 80 1.6 N 24 35 13 19 1020.7 - 0.0
27/10:00am 10.6 5.5 7.8 83 1.4 N 24 33 13 18 1020.8 - 0.0
27/09:30am 9.8 4.3 7.6 86 1.1 N 26 37 14 20 1020.6 - 0.0
27/09:00am 9.4 3.9 7.5 88 0.9 N 26 39 14 21 1021.0 1021.2 0.4
27/08:30am 9.1 4.0 7.5 90 0.8 N 24 39 13 21 1021.2 - 0.4
27/08:00am 8.5 3.3 7.4 93 0.5 N 24 35 13 19 1021.3 - 0.4
27/07:30am 8.2 3.3 7.1 93 0.5 N 22 32 12 17 1021.7 - 0.4
27/07:00am 8.1 3.7 7.2 94 0.4 N 20 30 11 16 1021.9 - 0.4
27/06:30am 7.5 3.6 7.1 97 0.2 N 17 24 9 13 1022.0 - 0.4
27/06:00am 6.9 4.0 6.6 98 0.1 N 11 17 6 9 1022.2 1022.4 0.4
27/05:30am 7.1 3.6 7.0 99 0.0 N 15 20 8 11 1022.2 - 0.4
27/05:00am 6.8 3.5 6.5 98 0.1 NNW 13 17 7 9 1022.4 - 0.2
27/04:30am 7.5 3.7 7.4 99 0.0 N 17 20 9 11 1022.7 - 0.2
27/04:00am 7.5 3.7 7.4 99 0.0 N 17 20 9 11 1023.0 - 0.2
27/03:30am 7.3 4.2 7.2 99 0.0 N 13 17 7 9 1023.2 - 0.2
27/03:00am 7.1 3.9 7.0 99 0.0 N 13 17 7 9 1023.2 1023.4 0.2
27/02:30am 7.0 4.6 6.9 99 0.0 NNW 9 13 5 7 1023.4 - 0.2
27/02:00am 6.3 4.1 6.0 98 0.1 N 7 9 4 5 1023.6 - 0.2
27/01:30am 6.9 4.0 6.6 98 0.1 N 11 15 6 8 1023.7 - 0.2
27/01:00am 7.2 4.4 6.9 98 0.1 N 11 17 6 9 1023.8 - 0.2
27/12:30am 7.5 4.8 7.2 98 0.1 N 11 17 6 9 1024.1 - 0.0
27/12:00am 7.2 4.4 6.9 98 0.1 N 11 13 6 7 1024.4 1024.6 0.0
 
Date/Time
EST
Temp
°C
App
Temp
°C
Dew
Point
Rel
Hum
%
Delta-T
°C
Wind Press
QNH
hPa
Press
MSL
hPa
Rain
since 9 am
mm
Dir
 
Spd
km/h
Gust
km/h
Spd
kts
Gust
kts
26/11:30pm 6.9 4.0 6.6 98 0.1 N 11 13 6 7 1024.6 - 0.0
26/11:00pm 6.7 3.8 6.4 98 0.1 N 11 13 6 7 1024.8 - 0.0
26/10:30pm 6.8 3.5 6.5 98 0.1 N 13 17 7 9 1025.0 - 0.0
26/10:00pm 7.1 4.2 6.7 97 0.2 N 11 13 6 7 1025.1 - 0.0
26/09:30pm 7.7 5.0 7.3 97 0.2 N 11 13 6 7 1025.1 - 0.0
26/09:00pm 7.5 4.7 7.1 97 0.2 N 11 13 6 7 1025.2 1025.5 0.0
26/08:30pm 8.0 5.4 7.6 97 0.2 N 11 13 6 7 1025.2 - 0.0
26/08:00pm 8.4 5.8 7.6 95 0.4 N 11 13 6 7 1025.1 - 0.0
26/07:30pm 8.6 6.0 7.8 95 0.4 N 11 13 6 7 1025.0 - 0.0
26/07:00pm 8.8 7.9 7.9 94 0.4 W 2 9 1 5 1025.0 - 0.0
26/06:30pm 8.7 8.1 7.5 92 0.6 CALM 0 0 0 0 1024.9 - 0.0
26/06:00pm 9.8 9.3 7.9 88 0.9 CALM 0 0 0 0 1024.8 1025.0 0.0
26/05:30pm 11.1 9.7 8.7 85 1.2 W 6 7 3 4 1024.8 - 0.0
26/05:00pm 12.2 10.3 9.2 82 1.5 W 9 13 5 7 1024.7 - 0.0
26/04:30pm 13.5 11.3 9.4 76 2.1 W 11 17 6 9 1024.5 - 0.0

Other Formats:

Comma delimited format used in spreadsheet applications
http://www.bom.gov.au/fwo/IDV60801/IDV60801.94828.axf

JavaScript Object Notation format (JSON) in row-major order
http://www.bom.gov.au/fwo/IDV60801/IDV60801.94828.json